Terminal Aerodrome Forecast
Issued by NWS Topeka, KS

Home | Current Version | Previous Version | Graphics & Text | Print | Product List | Glossary On
Versions: 1 2 3 4 5 6 7 8 9 10 11 12 13 14 15 16 17 18 19
917
FTUS43 KTOP 302320
TAFTOP
TAF
KTOP 302320Z 0100/0124 27007KT P6SM SCT015 BKN035
     FM011200 29009KT P6SM SCT008 BKN015
     FM011900 34011KT P6SM BKN020=

USA.gov is the U.S. government's official web portal to all federal, state and local government web resources and services.